createdAt,value
2022-12-18T00:00:11.078Z,-2.40
2022-12-18T00:02:40.512Z,-2.40
2022-12-18T00:05:09.923Z,-2.40
2022-12-18T00:07:38.856Z,-2.40
2022-12-18T00:10:08.285Z,-2.50
2022-12-18T00:12:36.265Z,-2.50
2022-12-18T00:15:04.499Z,-2.50
2022-12-18T00:17:32.925Z,-2.40
2022-12-18T00:20:02.299Z,-2.40
2022-12-18T00:22:30.301Z,-2.40
2022-12-18T00:24:58.302Z,-2.40
2022-12-18T00:27:26.417Z,-2.40
2022-12-18T00:29:54.404Z,-2.40
2022-12-18T00:32:22.423Z,-2.40
2022-12-18T00:34:50.404Z,-2.40
2022-12-18T00:37:20.415Z,-2.40
2022-12-18T00:39:51.335Z,-2.40
2022-12-18T00:42:36.640Z,-2.40
2022-12-18T00:45:10.664Z,-2.50
2022-12-18T00:47:40.489Z,-2.50
2022-12-18T00:50:10.065Z,-2.50
2022-12-18T00:52:39.432Z,-2.50
2022-12-18T00:55:08.078Z,-2.50
2022-12-18T00:57:36.249Z,-2.60
2022-12-18T01:00:04.945Z,-2.50
2022-12-18T01:02:33.100Z,-2.50
2022-12-18T01:05:01.240Z,-2.50
2022-12-18T01:07:29.291Z,-2.50
2022-12-18T01:09:58.859Z,-2.50
2022-12-18T01:12:26.877Z,-2.50
2022-12-18T01:14:54.889Z,-2.40
2022-12-18T01:17:24.185Z,-2.50
2022-12-18T01:19:52.173Z,-2.40
2022-12-18T01:22:20.241Z,-2.40
2022-12-18T01:24:48.304Z,-2.40
2022-12-18T01:27:17.788Z,-2.40
2022-12-18T01:29:45.871Z,-2.40
2022-12-18T01:32:13.885Z,-2.50
2022-12-18T01:34:42.189Z,-2.50
2022-12-18T01:37:10.299Z,-2.40
2022-12-18T01:39:38.314Z,-2.40
2022-12-18T01:42:13.025Z,-2.40
2022-12-18T01:45:23.459Z,-2.40
2022-12-18T01:47:54.707Z,-2.40
2022-12-18T01:50:26.608Z,-2.40
2022-12-18T01:52:58.728Z,-2.40
2022-12-18T01:55:30.326Z,-2.40
2022-12-18T01:58:01.290Z,-2.40
2022-12-18T02:00:31.353Z,-2.40
2022-12-18T02:02:59.912Z,-2.40
2022-12-18T02:05:37.198Z,-2.40
2022-12-18T02:08:12.818Z,-2.40
2022-12-18T02:10:49.028Z,-2.40
2022-12-18T02:13:23.928Z,-2.40
2022-12-18T02:16:02.244Z,-2.30
2022-12-18T02:18:34.383Z,-2.30
2022-12-18T02:21:10.703Z,-2.30
2022-12-18T02:23:49.918Z,-2.30
2022-12-18T02:26:24.098Z,-2.30
2022-12-18T02:28:57.280Z,-2.30
2022-12-18T02:31:28.142Z,-2.30
2022-12-18T02:33:59.551Z,-2.30
2022-12-18T02:36:30.783Z,-2.30
2022-12-18T02:39:00.304Z,-2.30
2022-12-18T02:41:30.753Z,-2.40
2022-12-18T02:44:02.555Z,-2.30
2022-12-18T02:46:35.576Z,-2.40
2022-12-18T02:49:27.532Z,-2.40
2022-12-18T02:52:01.645Z,-2.40
2022-12-18T02:54:41.666Z,-2.40
2022-12-18T02:57:19.798Z,-2.40
2022-12-18T02:59:56.260Z,-2.40
2022-12-18T03:02:29.128Z,-2.40
2022-12-18T03:05:03.179Z,-2.40
2022-12-18T03:07:39.251Z,-2.40
2022-12-18T03:10:10.887Z,-2.40
2022-12-18T03:12:47.824Z,-2.30
2022-12-18T03:15:20.621Z,-2.30
2022-12-18T03:17:56.715Z,-2.30
2022-12-18T03:20:27.779Z,-2.30
2022-12-18T03:23:02.563Z,-2.30
2022-12-18T03:25:32.625Z,-2.30
2022-12-18T03:28:04.774Z,-2.30
2022-12-18T03:30:37.968Z,-2.30
2022-12-18T03:33:10.840Z,-2.30
2022-12-18T03:35:43.642Z,-2.30
2022-12-18T03:38:12.540Z,-2.30
2022-12-18T03:40:51.725Z,-2.30
2022-12-18T03:43:29.299Z,-2.30
2022-12-18T03:46:04.876Z,-2.30
2022-12-18T03:48:38.716Z,-2.30
2022-12-18T03:51:10.555Z,-2.40
2022-12-18T03:53:44.155Z,-2.30
2022-12-18T03:56:13.808Z,-2.40
2022-12-18T03:58:45.596Z,-2.40
2022-12-18T04:01:17.289Z,-2.40
2022-12-18T04:03:48.268Z,-2.40
2022-12-18T04:06:17.517Z,-2.40
2022-12-18T04:08:46.180Z,-2.40
2022-12-18T04:11:14.192Z,-2.40
2022-12-18T04:13:45.372Z,-2.30
2022-12-18T04:16:13.578Z,-2.40
2022-12-18T04:18:41.672Z,-2.40
2022-12-18T04:21:10.171Z,-2.40
2022-12-18T04:23:38.508Z,-2.40
2022-12-18T04:26:06.996Z,-2.40
2022-12-18T04:28:35.037Z,-2.40
2022-12-18T04:31:04.564Z,-2.40
2022-12-18T04:33:32.916Z,-2.40
2022-12-18T04:36:00.902Z,-2.40
2022-12-18T04:38:29.005Z,-2.40
2022-12-18T04:40:57.039Z,-2.40
2022-12-18T04:43:25.110Z,-2.40
2022-12-18T04:45:53.255Z,-2.40
2022-12-18T04:48:22.687Z,-2.40
2022-12-18T04:50:50.702Z,-2.40
2022-12-18T04:53:18.725Z,-2.40
2022-12-18T04:55:49.118Z,-2.40
2022-12-18T04:58:17.205Z,-2.50
2022-12-18T05:00:45.919Z,-2.50
2022-12-18T05:03:13.988Z,-2.40
2022-12-18T05:05:43.357Z,-2.40
2022-12-18T05:08:11.387Z,-2.40
2022-12-18T05:10:39.388Z,-2.40
2022-12-18T05:13:07.363Z,-2.40
2022-12-18T05:15:35.827Z,-2.40
2022-12-18T05:18:04.889Z,-2.50
2022-12-18T05:20:33.175Z,-2.40
2022-12-18T05:23:02.582Z,-2.50
2022-12-18T05:25:30.593Z,-2.40
2022-12-18T05:27:59.010Z,-2.40
2022-12-18T05:30:28.474Z,-2.40
2022-12-18T05:32:56.557Z,-2.40
2022-12-18T05:35:24.598Z,-2.40
2022-12-18T05:37:52.597Z,-2.40
2022-12-18T05:40:22.031Z,-2.40
2022-12-18T05:42:50.023Z,-2.40
2022-12-18T05:45:18.131Z,-2.40
2022-12-18T05:47:46.147Z,-2.40
2022-12-18T05:50:14.214Z,-2.50
2022-12-18T05:52:42.224Z,-2.50
2022-12-18T05:55:10.547Z,-2.50
2022-12-18T05:57:39.893Z,-2.50
2022-12-18T06:00:09.131Z,-2.50
2022-12-18T06:02:37.230Z,-2.50
2022-12-18T06:05:06.007Z,-2.50
2022-12-18T06:07:34.131Z,-2.50
2022-12-18T06:10:02.186Z,-2.50
2022-12-18T06:12:30.180Z,-2.50
2022-12-18T06:14:59.820Z,-2.50
2022-12-18T06:17:30.976Z,-2.50
2022-12-18T06:19:59.065Z,-2.50
2022-12-18T06:22:27.394Z,-2.60
2022-12-18T06:24:55.479Z,-2.60
2022-12-18T06:27:23.944Z,-2.60
2022-12-18T06:29:51.992Z,-2.60
2022-12-18T06:32:21.374Z,-2.60
2022-12-18T06:34:49.378Z,-2.60
2022-12-18T06:37:17.378Z,-2.60
2022-12-18T06:39:45.365Z,-2.60
2022-12-18T06:42:13.916Z,-2.60
2022-12-18T06:44:41.925Z,-2.60
2022-12-18T06:47:09.988Z,-2.60
2022-12-18T06:49:39.349Z,-2.60
2022-12-18T06:52:07.350Z,-2.60
2022-12-18T06:54:35.352Z,-2.60
2022-12-18T06:57:03.396Z,-2.60
2022-12-18T06:59:31.418Z,-2.60
2022-12-18T07:01:59.655Z,-2.60
2022-12-18T07:04:30.652Z,-2.60
2022-12-18T07:07:00.309Z,-2.60
2022-12-18T07:09:31.606Z,-2.60
2022-12-18T07:11:59.613Z,-2.60
2022-12-18T07:14:27.659Z,-2.60
2022-12-18T07:16:55.846Z,-2.60
2022-12-18T07:19:28.212Z,-2.60
2022-12-18T07:21:57.311Z,-2.60
2022-12-18T07:24:28.871Z,-2.50
2022-12-18T07:26:56.883Z,-2.50
2022-12-18T07:29:25.123Z,-2.50
2022-12-18T07:31:53.378Z,-2.50
2022-12-18T07:34:21.412Z,-2.50
2022-12-18T07:36:49.452Z,-2.40
2022-12-18T07:39:17.521Z,-2.40
2022-12-18T07:42:08.196Z,-2.40
2022-12-18T07:44:36.223Z,-2.40
2022-12-18T07:47:11.742Z,-2.30
2022-12-18T07:49:39.948Z,-2.30
2022-12-18T07:52:08.181Z,-2.30
2022-12-18T07:54:36.221Z,-2.20
2022-12-18T07:57:12.969Z,-2.20
2022-12-18T07:59:53.621Z,-2.20
2022-12-18T08:02:21.698Z,-2.20
2022-12-18T08:04:49.865Z,-2.10
2022-12-18T08:07:17.870Z,-2.10
2022-12-18T08:09:45.859Z,-2.00
2022-12-18T08:12:17.194Z,-2.00
2022-12-18T08:14:45.177Z,-2.00
2022-12-18T08:17:13.229Z,-2.00
2022-12-18T08:19:41.252Z,-2.00
2022-12-18T08:22:09.223Z,-1.90
2022-12-18T08:24:37.235Z,-1.90
2022-12-18T08:29:54.727Z,-1.80
2022-12-18T08:32:22.766Z,-1.70
2022-12-18T08:34:50.815Z,-1.70
2022-12-18T08:37:18.828Z,-1.70
2022-12-18T08:39:46.809Z,-1.60
2022-12-18T08:42:32.012Z,-1.60
2022-12-18T08:45:01.449Z,-1.50
2022-12-18T08:47:29.664Z,-1.50
2022-12-18T08:49:57.677Z,-1.50
2022-12-18T08:52:25.656Z,-1.40
2022-12-18T08:54:53.682Z,-1.40
2022-12-18T08:57:21.650Z,-1.40
2022-12-18T08:59:52.675Z,-1.40
2022-12-18T09:02:22.257Z,-1.30
2022-12-18T09:04:56.896Z,-1.20
2022-12-18T09:07:25.477Z,-1.20
2022-12-18T09:09:53.487Z,-1.20
2022-12-18T09:12:21.686Z,-1.10
2022-12-18T09:14:49.740Z,-1.00
2022-12-18T09:17:17.880Z,-1.00
2022-12-18T09:19:47.411Z,-0.90
2022-12-18T09:22:15.576Z,-0.90
2022-12-18T09:24:43.571Z,-0.70
2022-12-18T09:27:11.589Z,-0.70
2022-12-18T09:29:39.572Z,-0.70
2022-12-18T09:32:10.380Z,-0.60
2022-12-18T09:34:38.376Z,-0.30
2022-12-18T09:37:10.223Z,-0.20
2022-12-18T09:39:38.203Z,-0.10
2022-12-18T09:42:07.523Z,-0.10
2022-12-18T09:44:44.675Z,-0.10
2022-12-18T09:47:17.145Z,0.10
2022-12-18T09:49:47.151Z,0.30
2022-12-18T09:52:23.367Z,0.20
2022-12-18T09:54:56.989Z,0.10
2022-12-18T09:57:26.681Z,0.00
2022-12-18T10:00:00.669Z,0.00
2022-12-18T10:02:33.090Z,0.00
2022-12-18T10:05:08.714Z,0.10
2022-12-18T10:07:49.128Z,0.10
2022-12-18T10:10:33.899Z,0.10
2022-12-18T10:13:11.605Z,0.10
2022-12-18T10:15:46.811Z,0.10
2022-12-18T10:18:27.356Z,0.20
2022-12-18T10:21:00.910Z,0.20
2022-12-18T10:23:37.796Z,0.20
2022-12-18T10:26:07.714Z,0.10
2022-12-18T10:28:38.842Z,0.20
2022-12-18T10:31:10.333Z,0.20
2022-12-18T10:33:38.776Z,0.20
2022-12-18T10:36:07.277Z,0.20
2022-12-18T10:38:37.014Z,0.30
2022-12-18T10:41:07.198Z,0.40
2022-12-18T10:43:36.555Z,0.30
2022-12-18T10:46:15.476Z,0.30
2022-12-18T10:48:52.116Z,0.30
2022-12-18T10:51:25.829Z,0.30
2022-12-18T10:53:58.951Z,0.30
2022-12-18T10:56:29.649Z,0.30
2022-12-18T10:59:00.393Z,0.30
2022-12-18T11:01:29.377Z,0.40
2022-12-18T11:04:10.933Z,0.40
2022-12-18T11:06:56.618Z,0.40
2022-12-18T11:09:28.066Z,0.30
2022-12-18T11:11:57.952Z,0.30
2022-12-18T11:14:29.308Z,0.30
2022-12-18T11:19:54.076Z,0.20
2022-12-18T11:22:24.459Z,0.20
2022-12-18T11:27:54.722Z,0.10
2022-12-18T11:30:28.185Z,0.10
2022-12-18T11:33:00.615Z,0.00
2022-12-18T11:35:38.909Z,0.00
2022-12-18T11:38:20.064Z,0.00
2022-12-18T11:40:54.923Z,0.00
2022-12-18T11:43:29.265Z,0.00
2022-12-18T11:46:03.665Z,-0.10
2022-12-18T11:48:36.042Z,-0.10
2022-12-18T11:51:07.088Z,-0.20
2022-12-18T11:53:39.013Z,-0.20
2022-12-18T11:56:31.500Z,-0.20
2022-12-18T11:59:11.007Z,-0.20
2022-12-18T12:01:50.891Z,-0.20
2022-12-18T12:04:49.648Z,-0.20
2022-12-18T12:07:30.788Z,-0.30
2022-12-18T12:10:08.577Z,-0.30
2022-12-18T12:12:57.961Z,-0.30
2022-12-18T12:15:36.802Z,-0.40
2022-12-18T12:18:16.786Z,-0.30
2022-12-18T12:20:55.639Z,-0.30
2022-12-18T12:23:34.967Z,-0.40
2022-12-18T12:26:08.133Z,-0.40
2022-12-18T12:28:58.032Z,-0.40
2022-12-18T12:31:41.507Z,-0.40
2022-12-18T12:34:19.867Z,-0.40
2022-12-18T12:37:03.759Z,-0.40
2022-12-18T12:39:35.294Z,-0.40
2022-12-18T12:42:22.635Z,-0.30
2022-12-18T12:44:57.178Z,0.10
2022-12-18T12:47:29.846Z,0.30
2022-12-18T12:50:00.302Z,0.30
2022-12-18T12:52:35.596Z,0.10
2022-12-18T12:55:11.561Z,0.00
2022-12-18T12:57:47.512Z,-0.20
2022-12-18T13:00:25.290Z,-0.20
2022-12-18T13:02:59.054Z,-0.30
2022-12-18T13:05:33.905Z,-0.40
2022-12-18T13:08:07.020Z,-0.40
2022-12-18T13:10:37.558Z,-0.50
2022-12-18T13:13:09.168Z,-0.50
2022-12-18T13:15:46.103Z,-0.50
2022-12-18T13:18:18.831Z,-0.60
2022-12-18T13:20:55.406Z,-0.60
2022-12-18T13:23:37.525Z,-0.60
2022-12-18T13:26:32.984Z,-0.70
2022-12-18T13:29:02.854Z,-0.70
2022-12-18T13:32:02.931Z,-0.80
2022-12-18T13:34:33.284Z,-0.80
2022-12-18T13:37:35.096Z,-0.90
2022-12-18T13:40:03.323Z,-0.90
2022-12-18T13:42:58.125Z,-0.90
2022-12-18T13:45:49.070Z,-1.00
2022-12-18T13:48:25.359Z,-1.00
2022-12-18T13:51:05.516Z,-1.10
2022-12-18T13:53:39.690Z,-1.10
2022-12-18T13:56:08.461Z,-1.20
2022-12-18T13:58:36.652Z,-1.20
2022-12-18T14:01:05.737Z,-1.20
2022-12-18T14:03:35.409Z,-1.30
2022-12-18T14:06:10.739Z,-1.30
2022-12-18T14:08:43.257Z,-1.40
2022-12-18T14:11:22.225Z,-1.40
2022-12-18T14:13:52.219Z,-1.40
2022-12-18T14:16:20.562Z,-1.50
2022-12-18T14:18:55.385Z,-1.50
2022-12-18T14:21:27.612Z,-1.60
2022-12-18T14:24:15.220Z,-1.60
2022-12-18T14:26:50.858Z,-1.70
2022-12-18T14:29:25.208Z,-1.70
2022-12-18T14:32:18.660Z,-1.80
2022-12-18T14:34:50.163Z,-1.90
2022-12-18T14:37:21.978Z,-1.90
2022-12-18T14:40:03.267Z,-1.90
2022-12-18T14:42:35.606Z,-2.00
2022-12-18T14:45:40.930Z,-2.00
2022-12-18T14:48:16.276Z,-2.10
2022-12-18T14:51:00.398Z,-2.20
2022-12-18T14:53:49.162Z,-2.30
2022-12-18T14:56:25.828Z,-2.30
2022-12-18T14:58:56.399Z,-2.30
2022-12-18T15:01:29.769Z,-2.40
2022-12-18T15:03:59.185Z,-2.50
2022-12-18T15:06:35.502Z,-2.50
2022-12-18T15:09:06.031Z,-2.50
2022-12-18T15:11:46.110Z,-2.60
2022-12-18T15:14:37.350Z,-2.60
2022-12-18T15:17:16.578Z,-2.60
2022-12-18T15:19:47.086Z,-2.70
2022-12-18T15:22:27.857Z,-2.70
2022-12-18T15:24:56.608Z,-2.80
2022-12-18T15:27:31.104Z,-2.80
2022-12-18T15:30:22.089Z,-2.80
2022-12-18T15:32:51.385Z,-2.80
2022-12-18T15:35:22.112Z,-2.90
2022-12-18T15:37:52.715Z,-2.90
2022-12-18T15:40:23.033Z,-2.90
2022-12-18T15:43:12.304Z,-2.90
2022-12-18T15:45:40.427Z,-2.90
2022-12-18T15:48:21.533Z,-2.90
2022-12-18T15:50:49.889Z,-3.00
2022-12-18T15:53:20.658Z,-3.00
2022-12-18T15:56:06.411Z,-3.00
2022-12-18T15:58:34.891Z,-3.10
2022-12-18T16:01:03.545Z,-3.10
2022-12-18T16:03:31.754Z,-3.20
2022-12-18T16:06:02.999Z,-3.30
2022-12-18T16:08:33.887Z,-3.40
2022-12-18T16:11:02.379Z,-3.40
2022-12-18T16:13:30.417Z,-3.50
2022-12-18T16:15:58.575Z,-3.50
2022-12-18T16:18:26.862Z,-3.60
2022-12-18T16:20:55.095Z,-3.70
2022-12-18T16:23:23.119Z,-3.70
2022-12-18T16:25:52.651Z,-3.70
2022-12-18T16:28:20.676Z,-3.70
2022-12-18T16:30:49.014Z,-3.80
2022-12-18T16:33:17.064Z,-3.80
2022-12-18T16:35:45.114Z,-3.90
2022-12-18T16:38:13.161Z,-3.90
2022-12-18T16:41:02.838Z,-3.90
2022-12-18T16:43:32.248Z,-3.90
2022-12-18T16:46:01.729Z,-4.00
2022-12-18T16:48:30.061Z,-4.00
2022-12-18T16:51:03.545Z,-4.00
2022-12-18T16:53:31.779Z,-4.10
2022-12-18T16:56:01.299Z,-4.10
2022-12-18T16:58:29.336Z,-4.10
2022-12-18T17:00:59.744Z,-4.20
2022-12-18T17:03:28.283Z,-4.20
2022-12-18T17:05:56.390Z,-4.20
2022-12-18T17:08:24.379Z,-4.20
2022-12-18T17:10:52.394Z,-4.20
2022-12-18T17:13:25.913Z,-4.20
2022-12-18T17:15:54.196Z,-4.30
2022-12-18T17:18:23.873Z,-4.30
2022-12-18T17:20:51.883Z,-4.40
2022-12-18T17:23:19.963Z,-4.40
2022-12-18T17:25:47.964Z,-4.40
2022-12-18T17:28:15.979Z,-4.40
2022-12-18T17:30:44.062Z,-4.50
2022-12-18T17:33:12.183Z,-4.50
2022-12-18T17:35:41.641Z,-4.50
2022-12-18T17:38:11.097Z,-4.60
2022-12-18T17:40:45.929Z,-4.70
2022-12-18T17:43:14.370Z,-4.60
2022-12-18T17:45:42.429Z,-4.70
2022-12-18T17:48:11.028Z,-4.70
2022-12-18T17:50:40.829Z,-4.70
2022-12-18T17:53:09.176Z,-4.70
2022-12-18T17:55:37.224Z,-4.80
2022-12-18T17:58:05.342Z,-4.80
2022-12-18T18:00:33.361Z,-4.80
2022-12-18T18:03:01.556Z,-4.80
2022-12-18T18:05:32.292Z,-4.90
2022-12-18T18:08:02.826Z,-4.90
2022-12-18T18:10:30.876Z,-4.90
2022-12-18T18:13:17.856Z,-5.00
2022-12-18T18:15:45.924Z,-5.00
2022-12-18T18:18:13.944Z,-5.00
2022-12-18T18:20:43.316Z,-5.00
2022-12-18T18:23:12.889Z,-5.00
2022-12-18T18:25:40.957Z,-5.00
2022-12-18T18:28:11.500Z,-4.90
2022-12-18T18:30:39.641Z,-4.90
2022-12-18T18:33:12.032Z,-4.90
2022-12-18T18:35:58.858Z,-4.90
2022-12-18T18:38:28.967Z,-5.00
2022-12-18T18:41:00.690Z,-5.00
2022-12-18T18:43:29.507Z,-4.90
2022-12-18T18:45:58.693Z,-4.90
2022-12-18T18:48:27.190Z,-4.90
2022-12-18T18:50:58.515Z,-4.90
2022-12-18T18:53:28.409Z,-4.90
2022-12-18T18:56:26.407Z,-4.90
2022-12-18T18:58:47.178Z,-4.90
2022-12-18T19:01:16.874Z,-4.90
2022-12-18T19:03:46.111Z,-4.90
2022-12-18T19:06:16.800Z,-4.90
2022-12-18T19:08:52.946Z,-4.90
2022-12-18T19:11:39.768Z,-5.00
2022-12-18T19:14:09.724Z,-5.00
2022-12-18T19:16:38.068Z,-5.00
2022-12-18T19:19:06.648Z,-5.00
2022-12-18T19:21:35.208Z,-5.00
2022-12-18T19:24:05.141Z,-5.00
2022-12-18T19:26:33.384Z,-5.00
2022-12-18T19:29:05.763Z,-5.00
2022-12-18T19:31:36.468Z,-5.00
2022-12-18T19:34:07.966Z,-5.00
2022-12-18T19:36:38.390Z,-5.00
2022-12-18T19:39:12.734Z,-5.10
2022-12-18T19:41:41.213Z,-5.00
2022-12-18T19:44:11.865Z,-5.00
2022-12-18T19:46:46.133Z,-5.00
2022-12-18T19:49:17.501Z,-5.00
2022-12-18T19:51:46.767Z,-5.00
2022-12-18T19:54:17.968Z,-5.10
2022-12-18T19:56:48.941Z,-5.10
2022-12-18T19:59:19.401Z,-5.20
2022-12-18T20:01:47.879Z,-5.20
2022-12-18T20:04:17.107Z,-5.20
2022-12-18T20:06:53.238Z,-5.30
2022-12-18T20:09:25.529Z,-5.30
2022-12-18T20:11:54.392Z,-5.40
2022-12-18T20:14:23.861Z,-5.40
2022-12-18T20:16:53.151Z,-5.40
2022-12-18T20:19:23.013Z,-5.40
2022-12-18T20:21:54.130Z,-5.30
2022-12-18T20:24:25.771Z,-5.30
2022-12-18T20:26:53.920Z,-5.30
2022-12-18T20:29:22.172Z,-5.30
2022-12-18T20:31:53.175Z,-5.30
2022-12-18T20:34:22.054Z,-5.30
2022-12-18T20:36:51.245Z,-5.40
2022-12-18T20:39:19.830Z,-5.40
2022-12-18T20:41:50.987Z,-5.50
2022-12-18T20:44:23.004Z,-5.50
2022-12-18T20:46:54.373Z,-5.60
2022-12-18T20:49:22.906Z,-5.60
2022-12-18T20:51:52.673Z,-5.60
2022-12-18T20:54:21.390Z,-5.60
2022-12-18T20:56:56.028Z,-5.60
2022-12-18T20:59:25.729Z,-5.60
2022-12-18T21:01:57.192Z,-5.60
2022-12-18T21:04:30.166Z,-5.70
2022-12-18T21:07:02.576Z,-5.70
2022-12-18T21:09:37.321Z,-5.70
2022-12-18T21:12:30.223Z,-5.70
2022-12-18T21:15:03.732Z,-5.70
2022-12-18T21:17:34.099Z,-5.70
2022-12-18T21:20:08.876Z,-5.80
2022-12-18T21:22:36.895Z,-5.80
2022-12-18T21:25:05.786Z,-5.90
2022-12-18T21:27:35.390Z,-5.90
2022-12-18T21:30:04.049Z,-6.00
2022-12-18T21:32:33.468Z,-6.00
2022-12-18T21:35:02.155Z,-6.00
2022-12-18T21:37:30.243Z,-6.10
2022-12-18T21:39:58.262Z,-6.10
2022-12-18T21:42:43.605Z,-6.10
2022-12-18T21:45:13.656Z,-6.10
2022-12-18T21:47:41.708Z,-6.10
2022-12-18T21:50:12.756Z,-6.10
2022-12-18T21:52:40.745Z,-6.10
2022-12-18T21:55:10.337Z,-6.10
2022-12-18T21:57:39.836Z,-6.10
2022-12-18T22:00:18.996Z,-6.20
2022-12-18T22:03:17.602Z,-6.10
2022-12-18T22:05:37.662Z,-6.20
2022-12-18T22:08:07.066Z,-6.20
2022-12-18T22:10:35.568Z,-6.10
2022-12-18T22:13:03.875Z,-6.10
2022-12-18T22:15:31.897Z,-6.10
2022-12-18T22:18:01.339Z,-6.00
2022-12-18T22:20:30.272Z,-6.10
2022-12-18T22:22:58.653Z,-6.10
2022-12-18T22:25:27.624Z,-6.10
2022-12-18T22:28:13.259Z,-6.20
2022-12-18T22:30:41.309Z,-6.20
2022-12-18T22:33:10.651Z,-6.20
2022-12-18T22:35:38.639Z,-6.20
2022-12-18T22:38:06.980Z,-6.20
2022-12-18T22:40:34.970Z,-6.20
2022-12-18T22:43:03.273Z,-6.20
2022-12-18T22:45:31.236Z,-6.20
2022-12-18T22:48:00.658Z,-6.20
2022-12-18T22:50:30.076Z,-6.20
2022-12-18T22:52:58.104Z,-6.20
2022-12-18T22:55:26.091Z,-6.30
2022-12-18T22:57:54.075Z,-6.20
2022-12-18T23:00:24.592Z,-6.20
2022-12-18T23:02:59.829Z,-6.20
2022-12-18T23:05:30.747Z,-6.20
2022-12-18T23:07:59.495Z,-6.20
2022-12-18T23:10:30.256Z,-6.30
2022-12-18T23:12:58.220Z,-6.20
2022-12-18T23:15:28.766Z,-6.20
2022-12-18T23:17:59.088Z,-6.20
2022-12-18T23:20:28.962Z,-6.30
2022-12-18T23:22:56.966Z,-6.20
2022-12-18T23:25:26.277Z,-6.30
2022-12-18T23:27:54.517Z,-6.30
2022-12-18T23:30:22.508Z,-6.30
2022-12-18T23:32:50.465Z,-6.30
2022-12-18T23:35:18.633Z,-6.30
2022-12-18T23:38:03.944Z,-6.30
2022-12-18T23:40:31.952Z,-6.30
2022-12-18T23:43:01.059Z,-6.30
2022-12-18T23:45:29.176Z,-6.30
2022-12-18T23:47:57.157Z,-6.30
2022-12-18T23:50:28.805Z,-6.30
2022-12-18T23:53:05.283Z,-6.40
2022-12-18T23:55:39.758Z,-6.40
2022-12-18T23:58:08.485Z,-6.40
